DAL1356 KATL-TFFR
Flight info
| Callsign | DAL1356 |
|---|---|
| Flight time | N/A |
| Altitude | 37000 |
| Route | SMLTZ3 WALET DCT OTK DCT TAY DCT OMN Y185 DONQU L454 LEEOO Y260 MODUX R888 GORET GORET2Z |
| Aircraft | B738/M-SDE2E3FGHIRWXY/LB1 |
Departure
| Time | N/A |
|---|---|
| Airport | Hartsfield Jackson Atlanta International Airport (KATL) |
Arrival
| Time | 2026-04-29 19:37 |
|---|---|
| Airport | Maryse Condé International Airport (TFFR) |
| Time | Latitude | Longitude | Altitude | Speed | Heading |
|---|---|---|---|---|---|
| 2026-04-29 16:01 | 33.07988 | -84.26761 | 21575 ft | 456 kts | 138° |
| 2026-04-29 16:01 | 33.05708 | -84.24093 | 21950 ft | 459 kts | 138° |
| 2026-04-29 16:01 | 33.03413 | -84.21415 | 22348 ft | 463 kts | 139° |
| 2026-04-29 16:02 | 33.01102 | -84.18749 | 22779 ft | 463 kts | 141° |
| 2026-04-29 16:02 | 32.98468 | -84.16595 | 23153 ft | 456 kts | 159° |
| 2026-04-29 16:02 | 32.95553 | -84.15280 | 23571 ft | 452 kts | 166° |
| 2026-04-29 16:02 | 32.92555 | -84.14083 | 23891 ft | 455 kts | 166° |
| 2026-04-29 16:03 | 32.89542 | -84.12903 | 24176 ft | 458 kts | 166° |
| 2026-04-29 16:03 | 32.86505 | -84.11703 | 24517 ft | 460 kts | 166° |
| 2026-04-29 16:03 | 32.83472 | -84.10487 | 24886 ft | 461 kts | 166° |
| 2026-04-29 16:03 | 32.80423 | -84.09249 | 25243 ft | 462 kts | 165° |
| 2026-04-29 16:04 | 32.77375 | -84.08002 | 25581 ft | 464 kts | 165° |
| 2026-04-29 16:04 | 32.74315 | -84.06744 | 25904 ft | 465 kts | 165° |
| 2026-04-29 16:04 | 32.71252 | -84.05483 | 26211 ft | 467 kts | 165° |
| 2026-04-29 16:04 | 32.68181 | -84.04219 | 26521 ft | 467 kts | 165° |
| 2026-04-29 16:05 | 32.65106 | -84.02955 | 26804 ft | 469 kts | 165° |
| 2026-04-29 16:05 | 32.62016 | -84.01688 | 27080 ft | 470 kts | 165° |
| 2026-04-29 16:05 | 32.58924 | -84.00420 | 27359 ft | 472 kts | 165° |
| 2026-04-29 16:05 | 32.55814 | -83.99147 | 27648 ft | 472 kts | 165° |
| 2026-04-29 16:06 | 32.52703 | -83.97875 | 27952 ft | 473 kts | 165° |
| 2026-04-29 16:06 | 32.49628 | -83.96617 | 28227 ft | 473 kts | 165° |
| 2026-04-29 16:06 | 32.46513 | -83.95345 | 28471 ft | 474 kts | 165° |
| 2026-04-29 16:06 | 32.43383 | -83.94067 | 28714 ft | 475 kts | 165° |
| 2026-04-29 16:07 | 32.40251 | -83.92789 | 28966 ft | 477 kts | 165° |
| 2026-04-29 16:07 | 32.37116 | -83.91511 | 29192 ft | 478 kts | 165° |
| 2026-04-29 16:07 | 32.33964 | -83.90230 | 29442 ft | 478 kts | 165° |
| 2026-04-29 16:07 | 32.30811 | -83.88951 | 29730 ft | 477 kts | 165° |
| 2026-04-29 16:08 | 32.27684 | -83.87684 | 30087 ft | 475 kts | 165° |
| 2026-04-29 16:08 | 32.24563 | -83.86419 | 30459 ft | 472 kts | 165° |
| 2026-04-29 16:08 | 32.21455 | -83.85159 | 30734 ft | 472 kts | 166° |
| 2026-04-29 16:08 | 32.18346 | -83.83901 | 30971 ft | 472 kts | 166° |
| 2026-04-29 16:09 | 32.15235 | -83.82642 | 31231 ft | 472 kts | 166° |
| 2026-04-29 16:09 | 32.12130 | -83.81388 | 31509 ft | 472 kts | 166° |
| 2026-04-29 16:09 | 32.09030 | -83.80136 | 31803 ft | 470 kts | 166° |
| 2026-04-29 16:09 | 32.05964 | -83.78898 | 32065 ft | 470 kts | 166° |
| 2026-04-29 16:10 | 32.02829 | -83.77633 | 32310 ft | 470 kts | 166° |
| 2026-04-29 16:10 | 31.99741 | -83.76388 | 32553 ft | 469 kts | 166° |
| 2026-04-29 16:10 | 31.96690 | -83.75158 | 32799 ft | 469 kts | 166° |
| 2026-04-29 16:10 | 31.93614 | -83.73919 | 33044 ft | 468 kts | 166° |
| 2026-04-29 16:11 | 31.90529 | -83.72679 | 33239 ft | 468 kts | 166° |
| 2026-04-29 16:11 | 31.87442 | -83.71439 | 33457 ft | 468 kts | 166° |
| 2026-04-29 16:11 | 31.84363 | -83.70202 | 33703 ft | 467 kts | 166° |
| 2026-04-29 16:11 | 31.81293 | -83.68969 | 33949 ft | 466 kts | 166° |
| 2026-04-29 16:12 | 31.78224 | -83.67738 | 34138 ft | 466 kts | 166° |
| 2026-04-29 16:12 | 31.76192 | -83.66924 | 34250 ft | 466 kts | 166° |
| 2026-04-29 16:12 | 31.72082 | -83.65278 | 34485 ft | 467 kts | 166° |
| 2026-04-29 16:12 | 31.68995 | -83.64043 | 34642 ft | 467 kts | 166° |
| 2026-04-29 16:13 | 31.65950 | -83.62825 | 34796 ft | 468 kts | 166° |
| 2026-04-29 16:13 | 31.62869 | -83.61594 | 34980 ft | 468 kts | 166° |
| 2026-04-29 16:13 | 31.59782 | -83.60361 | 35069 ft | 469 kts | 166° |
| 2026-04-29 16:14 | 31.53557 | -83.57879 | 35071 ft | 472 kts | 166° |
| 2026-04-29 16:14 | 31.47395 | -83.55422 | 35078 ft | 469 kts | 166° |
| 2026-04-29 16:15 | 31.41227 | -83.52966 | 35087 ft | 466 kts | 166° |
| 2026-04-29 16:15 | 31.35081 | -83.50524 | 35085 ft | 465 kts | 166° |
| 2026-04-29 16:16 | 31.28953 | -83.48092 | 35081 ft | 465 kts | 166° |
| 2026-04-29 16:16 | 31.22827 | -83.45666 | 35080 ft | 465 kts | 166° |
| 2026-04-29 16:17 | 31.16697 | -83.43240 | 35078 ft | 466 kts | 166° |
| 2026-04-29 16:17 | 31.10541 | -83.40807 | 35070 ft | 467 kts | 166° |
| 2026-04-29 16:18 | 31.04391 | -83.38382 | 35068 ft | 469 kts | 166° |
| 2026-04-29 16:18 | 30.98203 | -83.35943 | 35068 ft | 470 kts | 166° |
| 2026-04-29 16:19 | 30.91990 | -83.33496 | 35062 ft | 471 kts | 166° |
| 2026-04-29 16:19 | 30.85812 | -83.31067 | 35066 ft | 471 kts | 166° |
| 2026-04-29 16:20 | 30.79763 | -83.28067 | 35066 ft | 481 kts | 146° |
| 2026-04-29 16:20 | 30.77300 | -83.25389 | 35081 ft | 488 kts | 131° |
| 2026-04-29 16:20 | 30.75529 | -83.22020 | 35070 ft | 492 kts | 115° |
| 2026-04-29 16:21 | 30.72877 | -83.14659 | 35071 ft | 494 kts | 114° |
| 2026-04-29 16:21 | 30.70212 | -83.07310 | 35073 ft | 494 kts | 115° |
| 2026-04-29 16:22 | 30.67473 | -82.99982 | 35067 ft | 494 kts | 115° |
| 2026-04-29 16:22 | 30.64725 | -82.92719 | 35067 ft | 493 kts | 115° |
| 2026-04-29 16:23 | 30.61957 | -82.85421 | 35074 ft | 492 kts | 115° |
| 2026-04-29 16:23 | 30.59196 | -82.78141 | 35073 ft | 491 kts | 115° |
| 2026-04-29 16:24 | 30.56443 | -82.70895 | 35081 ft | 490 kts | 115° |
| 2026-04-29 16:24 | 30.53693 | -82.63669 | 35080 ft | 488 kts | 115° |
| 2026-04-29 16:25 | 30.50846 | -82.56587 | 35074 ft | 485 kts | 123° |
| 2026-04-29 16:25 | 30.46745 | -82.50481 | 35098 ft | 478 kts | 136° |
| 2026-04-29 16:26 | 30.42110 | -82.44950 | 35085 ft | 477 kts | 137° |
| 2026-04-29 16:26 | 30.37480 | -82.39426 | 35088 ft | 477 kts | 137° |
| 2026-04-29 16:27 | 30.32888 | -82.33886 | 35081 ft | 477 kts | 136° |
| 2026-04-29 16:27 | 30.28331 | -82.28359 | 35089 ft | 477 kts | 136° |
| 2026-04-29 16:28 | 30.23746 | -82.22800 | 35096 ft | 477 kts | 136° |
| 2026-04-29 16:28 | 30.19156 | -82.17247 | 35084 ft | 478 kts | 136° |
| 2026-04-29 16:29 | 30.14545 | -82.11675 | 35090 ft | 478 kts | 136° |
| 2026-04-29 16:29 | 30.09946 | -82.06127 | 35093 ft | 478 kts | 136° |
| 2026-04-29 16:30 | 30.05340 | -82.00581 | 35087 ft | 479 kts | 136° |
| 2026-04-29 16:30 | 30.00721 | -81.95027 | 35089 ft | 479 kts | 136° |
| 2026-04-29 16:31 | 29.96128 | -81.89512 | 35075 ft | 479 kts | 136° |
| 2026-04-29 16:31 | 29.91511 | -81.83976 | 35086 ft | 479 kts | 136° |
| 2026-04-29 16:32 | 29.86881 | -81.78432 | 35075 ft | 479 kts | 136° |
| 2026-04-29 16:32 | 29.82260 | -81.72903 | 35074 ft | 478 kts | 136° |
| 2026-04-29 16:33 | 29.75335 | -81.64639 | 35068 ft | 478 kts | 136° |
| 2026-04-29 16:33 | 29.70746 | -81.59171 | 35075 ft | 477 kts | 136° |
| 2026-04-29 16:34 | 29.66131 | -81.53680 | 35081 ft | 477 kts | 136° |
| 2026-04-29 16:34 | 29.61515 | -81.48194 | 35087 ft | 477 kts | 136° |
| 2026-04-29 16:35 | 29.56897 | -81.42716 | 35081 ft | 476 kts | 136° |
| 2026-04-29 16:35 | 29.52291 | -81.37260 | 35097 ft | 475 kts | 136° |
| 2026-04-29 16:36 | 29.47677 | -81.31799 | 35094 ft | 475 kts | 136° |
| 2026-04-29 16:36 | 29.43072 | -81.26358 | 35095 ft | 475 kts | 136° |
| 2026-04-29 16:37 | 29.38468 | -81.20924 | 35104 ft | 474 kts | 136° |
| 2026-04-29 16:37 | 29.34641 | -81.16414 | 35102 ft | 475 kts | 136° |
| 2026-04-29 16:38 | 29.29280 | -81.10116 | 35107 ft | 474 kts | 137° |
| 2026-04-29 16:38 | 29.24527 | -81.04862 | 35099 ft | 475 kts | 138° |
| 2026-04-29 16:39 | 29.19717 | -80.99662 | 35099 ft | 475 kts | 138° |
| 2026-04-29 16:39 | 29.14924 | -80.94450 | 35099 ft | 475 kts | 138° |
| 2026-04-29 16:40 | 29.10146 | -80.89229 | 35110 ft | 474 kts | 137° |
| 2026-04-29 16:40 | 29.05407 | -80.84050 | 35111 ft | 474 kts | 137° |
| 2026-04-29 16:41 | 29.00635 | -80.78843 | 35109 ft | 474 kts | 137° |
| 2026-04-29 16:41 | 28.95863 | -80.73646 | 35104 ft | 474 kts | 137° |
| 2026-04-29 16:42 | 28.91098 | -80.68463 | 35102 ft | 474 kts | 137° |
| 2026-04-29 16:42 | 28.86317 | -80.63268 | 35100 ft | 473 kts | 137° |
| 2026-04-29 16:43 | 28.81765 | -80.57842 | 35095 ft | 474 kts | 128° |
| 2026-04-29 16:43 | 28.78767 | -80.53193 | 35079 ft | 474 kts | 126° |
| 2026-04-29 16:44 | 28.74260 | -80.46126 | 35096 ft | 473 kts | 127° |
| 2026-04-29 16:44 | 28.70982 | -80.41123 | 35092 ft | 473 kts | 127° |
| 2026-04-29 16:45 | 28.67184 | -80.35006 | 35095 ft | 473 kts | 124° |
| 2026-04-29 16:45 | 28.63548 | -80.28751 | 35075 ft | 473 kts | 123° |
| 2026-04-29 16:46 | 28.59906 | -80.22509 | 35082 ft | 473 kts | 123° |
| 2026-04-29 16:46 | 28.56238 | -80.16302 | 35091 ft | 472 kts | 124° |
| 2026-04-29 16:47 | 28.52558 | -80.10116 | 35082 ft | 472 kts | 124° |
| 2026-04-29 16:47 | 28.48874 | -80.03934 | 35086 ft | 472 kts | 124° |
| 2026-04-29 16:48 | 28.45187 | -79.97757 | 35085 ft | 472 kts | 123° |
| 2026-04-29 16:48 | 28.41499 | -79.91583 | 35087 ft | 471 kts | 123° |
| 2026-04-29 16:49 | 28.37837 | -79.85460 | 35098 ft | 471 kts | 123° |
| 2026-04-29 16:49 | 28.34159 | -79.79320 | 35096 ft | 470 kts | 123° |
| 2026-04-29 16:50 | 28.30479 | -79.73188 | 35081 ft | 470 kts | 123° |
| 2026-04-29 16:50 | 28.26795 | -79.67064 | 35095 ft | 470 kts | 123° |
| 2026-04-29 16:51 | 28.23110 | -79.60934 | 35090 ft | 469 kts | 123° |
| 2026-04-29 16:51 | 28.19425 | -79.54815 | 35096 ft | 469 kts | 124° |
| 2026-04-29 16:52 | 28.15760 | -79.48743 | 35103 ft | 469 kts | 124° |
| 2026-04-29 16:52 | 28.12050 | -79.42605 | 35102 ft | 469 kts | 124° |
| 2026-04-29 16:53 | 28.08359 | -79.36506 | 35107 ft | 469 kts | 124° |
| 2026-04-29 16:53 | 28.04689 | -79.30448 | 35113 ft | 469 kts | 124° |
| 2026-04-29 16:54 | 28.00991 | -79.24353 | 35110 ft | 469 kts | 124° |
| 2026-04-29 16:54 | 27.97293 | -79.18266 | 35115 ft | 470 kts | 123° |
| 2026-04-29 16:55 | 27.93585 | -79.12167 | 35109 ft | 470 kts | 123° |
| 2026-04-29 16:55 | 27.89864 | -79.06082 | 35106 ft | 469 kts | 124° |
| 2026-04-29 16:56 | 27.86175 | -79.00065 | 35106 ft | 468 kts | 124° |
| 2026-04-29 16:56 | 27.82469 | -78.94023 | 35112 ft | 467 kts | 124° |
| 2026-04-29 16:57 | 27.78770 | -78.87996 | 35110 ft | 466 kts | 124° |
| 2026-04-29 16:57 | 27.75077 | -78.81990 | 35112 ft | 465 kts | 124° |
| 2026-04-29 16:58 | 27.71384 | -78.75990 | 35111 ft | 464 kts | 124° |
| 2026-04-29 16:58 | 27.67705 | -78.70019 | 35110 ft | 463 kts | 124° |
| 2026-04-29 16:59 | 27.64026 | -78.64056 | 35121 ft | 462 kts | 123° |
| 2026-04-29 16:59 | 27.60460 | -78.58030 | 35121 ft | 462 kts | 122° |
| 2026-04-29 17:00 | 27.56944 | -78.51963 | 35118 ft | 462 kts | 122° |
| 2026-04-29 17:00 | 27.53442 | -78.45950 | 35121 ft | 462 kts | 122° |
| 2026-04-29 17:01 | 27.49900 | -78.39907 | 35120 ft | 462 kts | 122° |
| 2026-04-29 17:01 | 27.46355 | -78.33875 | 35125 ft | 462 kts | 122° |
| 2026-04-29 17:02 | 27.42806 | -78.27840 | 35128 ft | 462 kts | 122° |
| 2026-04-29 17:02 | 27.39248 | -78.21797 | 35129 ft | 463 kts | 122° |
| 2026-04-29 17:03 | 27.35686 | -78.15760 | 35130 ft | 463 kts | 122° |
| 2026-04-29 17:03 | 27.32120 | -78.09721 | 35131 ft | 464 kts | 122° |
| 2026-04-29 17:04 | 27.28559 | -78.03678 | 35127 ft | 463 kts | 122° |
| 2026-04-29 17:04 | 27.24994 | -77.97632 | 35135 ft | 463 kts | 122° |
| 2026-04-29 17:05 | 27.21450 | -77.91632 | 35106 ft | 464 kts | 122° |
| 2026-04-29 17:05 | 27.17880 | -77.85599 | 35100 ft | 463 kts | 122° |
| 2026-04-29 17:06 | 27.14314 | -77.79579 | 35100 ft | 462 kts | 122° |
| 2026-04-29 17:06 | 27.10745 | -77.73561 | 35102 ft | 462 kts | 122° |
| 2026-04-29 17:07 | 27.07184 | -77.67566 | 35100 ft | 460 kts | 122° |
| 2026-04-29 17:07 | 27.03656 | -77.61632 | 35103 ft | 459 kts | 122° |
| 2026-04-29 17:08 | 27.00109 | -77.55668 | 35099 ft | 459 kts | 122° |
| 2026-04-29 17:08 | 26.96604 | -77.49670 | 35103 ft | 459 kts | 122° |
| 2026-04-29 17:09 | 26.93135 | -77.43698 | 35104 ft | 458 kts | 122° |
| 2026-04-29 17:09 | 26.89651 | -77.37713 | 35100 ft | 459 kts | 122° |
| 2026-04-29 17:10 | 26.86158 | -77.31731 | 35103 ft | 458 kts | 122° |
| 2026-04-29 17:10 | 26.82659 | -77.25756 | 35102 ft | 459 kts | 122° |
| 2026-04-29 17:11 | 26.79160 | -77.19784 | 35100 ft | 459 kts | 122° |
| 2026-04-29 17:11 | 26.75657 | -77.13811 | 35103 ft | 459 kts | 122° |
| 2026-04-29 17:12 | 26.72152 | -77.07842 | 35101 ft | 459 kts | 122° |
| 2026-04-29 17:12 | 26.69235 | -77.02884 | 35100 ft | 459 kts | 122° |
| 2026-04-29 17:13 | 26.65156 | -76.95963 | 35105 ft | 458 kts | 122° |
| 2026-04-29 17:13 | 26.61644 | -76.90009 | 35112 ft | 458 kts | 122° |
| 2026-04-29 17:14 | 26.58132 | -76.84062 | 35111 ft | 458 kts | 122° |
| 2026-04-29 17:14 | 26.54612 | -76.78112 | 35112 ft | 459 kts | 122° |
| 2026-04-29 17:15 | 26.51097 | -76.72175 | 35099 ft | 458 kts | 122° |
| 2026-04-29 17:15 | 26.47577 | -76.66239 | 35102 ft | 458 kts | 122° |
| 2026-04-29 17:16 | 26.44061 | -76.60318 | 35101 ft | 457 kts | 122° |
| 2026-04-29 17:16 | 26.40552 | -76.54416 | 35102 ft | 456 kts | 122° |
| 2026-04-29 17:17 | 26.37057 | -76.48544 | 35100 ft | 456 kts | 122° |
| 2026-04-29 17:17 | 26.33553 | -76.42665 | 35102 ft | 455 kts | 122° |
| 2026-04-29 17:18 | 26.30052 | -76.36801 | 35102 ft | 454 kts | 122° |
| 2026-04-29 17:18 | 26.26553 | -76.30947 | 35101 ft | 453 kts | 122° |
| 2026-04-29 17:19 | 26.23056 | -76.25100 | 35099 ft | 453 kts | 122° |
| 2026-04-29 17:19 | 26.19564 | -76.19272 | 35104 ft | 453 kts | 122° |
| 2026-04-29 17:20 | 26.16064 | -76.13438 | 35103 ft | 452 kts | 122° |
| 2026-04-29 17:20 | 26.12567 | -76.07615 | 35101 ft | 452 kts | 122° |
| 2026-04-29 17:21 | 26.09066 | -76.01795 | 35101 ft | 452 kts | 122° |
| 2026-04-29 17:21 | 26.05585 | -75.96015 | 35101 ft | 452 kts | 122° |
| 2026-04-29 17:22 | 26.02082 | -75.90203 | 35103 ft | 452 kts | 122° |
| 2026-04-29 17:22 | 25.98575 | -75.84392 | 35099 ft | 452 kts | 122° |
| 2026-04-29 17:23 | 25.95058 | -75.78575 | 35104 ft | 453 kts | 122° |
| 2026-04-29 17:23 | 25.91540 | -75.72764 | 35100 ft | 453 kts | 123° |
| 2026-04-29 17:24 | 25.88019 | -75.66954 | 35101 ft | 453 kts | 123° |
| 2026-04-29 17:24 | 25.84515 | -75.61176 | 35101 ft | 454 kts | 123° |
| 2026-04-29 17:25 | 25.80979 | -75.55356 | 35102 ft | 455 kts | 123° |
| 2026-04-29 17:25 | 25.77433 | -75.49526 | 35100 ft | 456 kts | 123° |
| 2026-04-29 17:26 | 25.73873 | -75.43683 | 35101 ft | 457 kts | 123° |
| 2026-04-29 17:26 | 25.70323 | -75.37861 | 35103 ft | 459 kts | 123° |
| 2026-04-29 17:27 | 25.66740 | -75.31994 | 35101 ft | 460 kts | 124° |
| 2026-04-29 17:27 | 25.63144 | -75.26110 | 35104 ft | 461 kts | 124° |
| 2026-04-29 17:28 | 25.59536 | -75.20215 | 35102 ft | 463 kts | 124° |
| 2026-04-29 17:28 | 25.55912 | -75.14301 | 35101 ft | 464 kts | 124° |
| 2026-04-29 17:29 | 25.52895 | -75.09384 | 35101 ft | 465 kts | 124° |
| 2026-04-29 17:29 | 25.49246 | -75.03443 | 35104 ft | 466 kts | 124° |
| 2026-04-29 17:30 | 25.45590 | -74.97499 | 35103 ft | 467 kts | 125° |
| 2026-04-29 17:30 | 25.41921 | -74.91541 | 35103 ft | 468 kts | 125° |
| 2026-04-29 17:31 | 25.38242 | -74.85575 | 35098 ft | 469 kts | 125° |
| 2026-04-29 17:31 | 25.34564 | -74.79617 | 35100 ft | 469 kts | 125° |
| 2026-04-29 17:32 | 25.30904 | -74.73695 | 35103 ft | 469 kts | 125° |
| 2026-04-29 17:32 | 25.27215 | -74.67735 | 35101 ft | 469 kts | 125° |
| 2026-04-29 17:33 | 25.23527 | -74.61784 | 35102 ft | 469 kts | 125° |
| 2026-04-29 17:33 | 25.19833 | -74.55831 | 35101 ft | 469 kts | 126° |
| 2026-04-29 17:34 | 25.16136 | -74.49880 | 35101 ft | 469 kts | 126° |
| 2026-04-29 17:34 | 25.12455 | -74.43963 | 35085 ft | 470 kts | 126° |
| 2026-04-29 17:35 | 25.06898 | -74.35044 | 35095 ft | 471 kts | 126° |
| 2026-04-29 17:36 | 25.03179 | -74.29083 | 35096 ft | 471 kts | 126° |
| 2026-04-29 17:36 | 24.99451 | -74.23114 | 35083 ft | 473 kts | 126° |
| 2026-04-29 17:37 | 24.95714 | -74.17140 | 35086 ft | 474 kts | 127° |
| 2026-04-29 17:37 | 24.91987 | -74.11192 | 35096 ft | 474 kts | 127° |
| 2026-04-29 17:38 | 24.88232 | -74.05204 | 35083 ft | 476 kts | 127° |
| 2026-04-29 17:38 | 24.84466 | -73.99205 | 35097 ft | 477 kts | 127° |
| 2026-04-29 17:39 | 24.80685 | -73.93190 | 35085 ft | 478 kts | 127° |
| 2026-04-29 17:39 | 24.76880 | -73.87145 | 35096 ft | 480 kts | 128° |
| 2026-04-29 17:40 | 24.73072 | -73.81102 | 35096 ft | 481 kts | 128° |
| 2026-04-29 17:40 | 24.69251 | -73.75047 | 35095 ft | 482 kts | 128° |
| 2026-04-29 17:41 | 24.65422 | -73.68985 | 35096 ft | 483 kts | 128° |
| 2026-04-29 17:41 | 24.61582 | -73.62913 | 35086 ft | 484 kts | 128° |
| 2026-04-29 17:42 | 24.57728 | -73.56824 | 35097 ft | 485 kts | 128° |
| 2026-04-29 17:42 | 24.53846 | -73.50825 | 35091 ft | 485 kts | 130° |
| 2026-04-29 17:43 | 24.49843 | -73.44866 | 35093 ft | 484 kts | 130° |
| 2026-04-29 17:43 | 24.45833 | -73.38915 | 35094 ft | 484 kts | 130° |
| 2026-04-29 17:44 | 24.41843 | -73.32969 | 35088 ft | 484 kts | 130° |
| 2026-04-29 17:44 | 24.37859 | -73.27023 | 35095 ft | 483 kts | 130° |
| 2026-04-29 17:45 | 24.33873 | -73.21076 | 35089 ft | 483 kts | 130° |
| 2026-04-29 17:45 | 24.29894 | -73.15150 | 35079 ft | 482 kts | 130° |
| 2026-04-29 17:46 | 24.25935 | -73.09261 | 35075 ft | 482 kts | 130° |
| 2026-04-29 17:46 | 24.21958 | -73.03352 | 35082 ft | 481 kts | 130° |
| 2026-04-29 17:47 | 24.17983 | -72.97452 | 35086 ft | 481 kts | 130° |
| 2026-04-29 17:47 | 24.14009 | -72.91563 | 35088 ft | 481 kts | 130° |
| 2026-04-29 17:48 | 24.10025 | -72.85666 | 35078 ft | 481 kts | 130° |
| 2026-04-29 17:48 | 24.06067 | -72.79813 | 35077 ft | 481 kts | 130° |
| 2026-04-29 17:49 | 24.02076 | -72.73917 | 35073 ft | 482 kts | 130° |
| 2026-04-29 17:49 | 23.98077 | -72.68017 | 35065 ft | 482 kts | 130° |
| 2026-04-29 17:50 | 23.94074 | -72.62121 | 35059 ft | 483 kts | 130° |
| 2026-04-29 17:50 | 23.90058 | -72.56210 | 35068 ft | 484 kts | 130° |
| 2026-04-29 17:51 | 23.86036 | -72.50298 | 35069 ft | 485 kts | 130° |
| 2026-04-29 17:51 | 23.82003 | -72.44376 | 35069 ft | 486 kts | 130° |
| 2026-04-29 17:52 | 23.77979 | -72.38476 | 35061 ft | 487 kts | 130° |
| 2026-04-29 17:52 | 23.73932 | -72.32546 | 35054 ft | 487 kts | 130° |
| 2026-04-29 17:53 | 23.69875 | -72.26612 | 35054 ft | 487 kts | 130° |
| 2026-04-29 17:53 | 23.65812 | -72.20672 | 35048 ft | 487 kts | 130° |
| 2026-04-29 17:54 | 23.61755 | -72.14750 | 35045 ft | 487 kts | 130° |
| 2026-04-29 17:54 | 23.57701 | -72.08842 | 35290 ft | 490 kts | 130° |
| 2026-04-29 17:54 | 23.55662 | -72.05871 | 35535 ft | 489 kts | 131° |
| 2026-04-29 17:55 | 23.53626 | -72.02905 | 35746 ft | 488 kts | 131° |
| 2026-04-29 17:55 | 23.51594 | -71.99948 | 35927 ft | 488 kts | 131° |
| 2026-04-29 17:55 | 23.49558 | -71.96988 | 36075 ft | 489 kts | 131° |
| 2026-04-29 17:55 | 23.47515 | -71.94020 | 36183 ft | 490 kts | 131° |
| 2026-04-29 17:56 | 23.45470 | -71.91050 | 36341 ft | 490 kts | 131° |
| 2026-04-29 17:56 | 23.43423 | -71.88078 | 36483 ft | 491 kts | 131° |
| 2026-04-29 17:56 | 23.41374 | -71.85104 | 36609 ft | 491 kts | 131° |
| 2026-04-29 17:56 | 23.39332 | -71.82142 | 36844 ft | 489 kts | 131° |
| 2026-04-29 17:57 | 23.37293 | -71.79183 | 37061 ft | 487 kts | 132° |
| 2026-04-29 17:57 | 23.33239 | -71.73304 | 37039 ft | 487 kts | 132° |
| 2026-04-29 17:58 | 23.29210 | -71.67437 | 37027 ft | 481 kts | 132° |
| 2026-04-29 17:58 | 23.25214 | -71.61624 | 37034 ft | 479 kts | 132° |
| 2026-04-29 17:59 | 23.21222 | -71.55829 | 37040 ft | 478 kts | 132° |
| 2026-04-29 17:59 | 23.17237 | -71.50051 | 37043 ft | 478 kts | 132° |
| 2026-04-29 18:00 | 23.13244 | -71.44269 | 37036 ft | 479 kts | 132° |
| 2026-04-29 18:00 | 23.09235 | -71.38472 | 37041 ft | 481 kts | 132° |
| 2026-04-29 18:01 | 23.05205 | -71.32648 | 37030 ft | 483 kts | 132° |
| 2026-04-29 18:01 | 23.01191 | -71.26853 | 37028 ft | 485 kts | 132° |
| 2026-04-29 18:02 | 22.97125 | -71.20989 | 37030 ft | 486 kts | 132° |
| 2026-04-29 18:02 | 22.93042 | -71.15107 | 37031 ft | 488 kts | 133° |
| 2026-04-29 18:03 | 22.88944 | -71.09210 | 37025 ft | 489 kts | 133° |
| 2026-04-29 18:03 | 22.84879 | -71.03366 | 37027 ft | 488 kts | 133° |
| 2026-04-29 18:04 | 22.80780 | -70.97479 | 37022 ft | 488 kts | 133° |
| 2026-04-29 18:04 | 22.76695 | -70.91622 | 37027 ft | 487 kts | 133° |
| 2026-04-29 18:05 | 22.72615 | -70.85776 | 37028 ft | 486 kts | 133° |
| 2026-04-29 18:05 | 22.68532 | -70.79936 | 37022 ft | 485 kts | 133° |
| 2026-04-29 18:06 | 22.64429 | -70.74209 | 37041 ft | 483 kts | 134° |
| 2026-04-29 18:06 | 22.60273 | -70.68483 | 37022 ft | 482 kts | 135° |
| 2026-04-29 18:07 | 22.56132 | -70.62770 | 37014 ft | 482 kts | 135° |
| 2026-04-29 18:07 | 22.52005 | -70.57065 | 37018 ft | 481 kts | 135° |
| 2026-04-29 18:08 | 22.47887 | -70.51371 | 37026 ft | 480 kts | 135° |
| 2026-04-29 18:08 | 22.43788 | -70.45713 | 37025 ft | 480 kts | 135° |
| 2026-04-29 18:09 | 22.39663 | -70.40025 | 37028 ft | 480 kts | 135° |
| 2026-04-29 18:09 | 22.35535 | -70.34341 | 37022 ft | 481 kts | 135° |
| 2026-04-29 18:10 | 22.31403 | -70.28659 | 37019 ft | 482 kts | 135° |
| 2026-04-29 18:10 | 22.27261 | -70.22967 | 37025 ft | 482 kts | 135° |
| 2026-04-29 18:11 | 22.23112 | -70.17270 | 37016 ft | 483 kts | 135° |
| 2026-04-29 18:11 | 22.18982 | -70.11605 | 37020 ft | 483 kts | 135° |
| 2026-04-29 18:12 | 22.14826 | -70.05908 | 37019 ft | 483 kts | 135° |
| 2026-04-29 18:12 | 22.10657 | -70.00207 | 37019 ft | 484 kts | 135° |
| 2026-04-29 18:13 | 22.06468 | -69.94511 | 37019 ft | 484 kts | 135° |
| 2026-04-29 18:13 | 22.02282 | -69.88824 | 37018 ft | 484 kts | 135° |
| 2026-04-29 18:14 | 21.98087 | -69.83126 | 37009 ft | 485 kts | 135° |
| 2026-04-29 18:14 | 21.93929 | -69.77464 | 36999 ft | 485 kts | 135° |
| 2026-04-29 18:15 | 21.89749 | -69.71765 | 37000 ft | 484 kts | 135° |
| 2026-04-29 18:15 | 21.85568 | -69.66070 | 36995 ft | 484 kts | 135° |
| 2026-04-29 18:16 | 21.82095 | -69.61345 | 37000 ft | 483 kts | 135° |
| 2026-04-29 18:16 | 21.77244 | -69.54753 | 36999 ft | 483 kts | 135° |
| 2026-04-29 18:17 | 21.73069 | -69.49089 | 37000 ft | 483 kts | 135° |
| 2026-04-29 18:17 | 21.69571 | -69.44349 | 37000 ft | 483 kts | 135° |
| 2026-04-29 18:18 | 21.65422 | -69.38729 | 36999 ft | 483 kts | 135° |
| 2026-04-29 18:18 | 21.61234 | -69.33066 | 36998 ft | 483 kts | 135° |
| 2026-04-29 18:19 | 21.57043 | -69.27404 | 37003 ft | 484 kts | 135° |
| 2026-04-29 18:19 | 21.52843 | -69.21733 | 37001 ft | 485 kts | 135° |
| 2026-04-29 18:20 | 21.48664 | -69.16095 | 36994 ft | 486 kts | 135° |
| 2026-04-29 18:20 | 21.44448 | -69.10416 | 37005 ft | 486 kts | 135° |
| 2026-04-29 18:21 | 21.40220 | -69.04725 | 37001 ft | 487 kts | 135° |
| 2026-04-29 18:21 | 21.35987 | -68.99033 | 36997 ft | 488 kts | 135° |
| 2026-04-29 18:22 | 21.31746 | -68.93338 | 37003 ft | 489 kts | 135° |
| 2026-04-29 18:22 | 21.27498 | -68.87637 | 37000 ft | 489 kts | 135° |
| 2026-04-29 18:23 | 21.23248 | -68.81941 | 37001 ft | 489 kts | 135° |
| 2026-04-29 18:23 | 21.19017 | -68.76275 | 36997 ft | 489 kts | 135° |
| 2026-04-29 18:24 | 21.14765 | -68.70586 | 37002 ft | 490 kts | 135° |
| 2026-04-29 18:24 | 21.10500 | -68.64887 | 36999 ft | 490 kts | 135° |
| 2026-04-29 18:25 | 21.06229 | -68.59185 | 36998 ft | 489 kts | 135° |
| 2026-04-29 18:25 | 21.01986 | -68.53520 | 37000 ft | 490 kts | 135° |
| 2026-04-29 18:26 | 20.97714 | -68.47830 | 37002 ft | 490 kts | 135° |
| 2026-04-29 18:26 | 20.93444 | -68.42151 | 36998 ft | 489 kts | 135° |
| 2026-04-29 18:27 | 20.89178 | -68.36480 | 37000 ft | 489 kts | 135° |
| 2026-04-29 18:27 | 20.84945 | -68.30857 | 37001 ft | 488 kts | 135° |
| 2026-04-29 18:28 | 20.80679 | -68.25195 | 36996 ft | 488 kts | 135° |
| 2026-04-29 18:28 | 20.76413 | -68.19539 | 37000 ft | 488 kts | 135° |
| 2026-04-29 18:29 | 20.72147 | -68.13888 | 37009 ft | 488 kts | 135° |
| 2026-04-29 18:29 | 20.67804 | -68.08330 | 37009 ft | 485 kts | 138° |
| 2026-04-29 18:30 | 20.63308 | -68.02946 | 37010 ft | 485 kts | 139° |
| 2026-04-29 18:30 | 20.58831 | -67.97613 | 37011 ft | 486 kts | 138° |
| 2026-04-29 18:31 | 20.54337 | -67.92213 | 37010 ft | 487 kts | 138° |
| 2026-04-29 18:31 | 20.49832 | -67.86774 | 37018 ft | 488 kts | 138° |
| 2026-04-29 18:32 | 20.45337 | -67.81345 | 37011 ft | 489 kts | 138° |
| 2026-04-29 18:32 | 20.38598 | -67.73213 | 37010 ft | 490 kts | 138° |
| 2026-04-29 18:33 | 20.34079 | -67.67770 | 37009 ft | 490 kts | 138° |
| 2026-04-29 18:33 | 20.29559 | -67.62329 | 37010 ft | 490 kts | 138° |
| 2026-04-29 18:34 | 20.25791 | -67.57799 | 37006 ft | 490 kts | 138° |
| 2026-04-29 18:34 | 20.20502 | -67.51450 | 37008 ft | 490 kts | 138° |
| 2026-04-29 18:35 | 20.16006 | -67.46056 | 37008 ft | 489 kts | 138° |
| 2026-04-29 18:35 | 20.11486 | -67.40638 | 37009 ft | 489 kts | 138° |
| 2026-04-29 18:36 | 20.06970 | -67.35230 | 37008 ft | 488 kts | 138° |
| 2026-04-29 18:36 | 20.02460 | -67.29833 | 37009 ft | 487 kts | 138° |
| 2026-04-29 18:37 | 19.97951 | -67.24446 | 37014 ft | 487 kts | 138° |
| 2026-04-29 18:37 | 19.93448 | -67.19068 | 37007 ft | 486 kts | 138° |
| 2026-04-29 18:38 | 19.88946 | -67.13696 | 37009 ft | 486 kts | 138° |
| 2026-04-29 18:38 | 19.84470 | -67.08364 | 37008 ft | 485 kts | 138° |
| 2026-04-29 18:39 | 19.79974 | -67.03008 | 37011 ft | 485 kts | 138° |
| 2026-04-29 18:39 | 19.75505 | -66.97690 | 37009 ft | 485 kts | 138° |
| 2026-04-29 18:40 | 19.71011 | -66.92348 | 37011 ft | 485 kts | 138° |
| 2026-04-29 18:40 | 19.66512 | -66.87007 | 37010 ft | 485 kts | 138° |
| 2026-04-29 18:41 | 19.57510 | -66.76331 | 37010 ft | 485 kts | 138° |
| 2026-04-29 18:42 | 19.53006 | -66.70996 | 37008 ft | 485 kts | 138° |
| 2026-04-29 18:42 | 19.48500 | -66.65665 | 37011 ft | 485 kts | 138° |
| 2026-04-29 18:43 | 19.43993 | -66.60337 | 37009 ft | 486 kts | 138° |
| 2026-04-29 18:43 | 19.39506 | -66.55036 | 37012 ft | 487 kts | 138° |
| 2026-04-29 18:44 | 19.34981 | -66.49695 | 37009 ft | 487 kts | 138° |
| 2026-04-29 18:44 | 19.30448 | -66.44351 | 37009 ft | 487 kts | 138° |
| 2026-04-29 18:45 | 19.25919 | -66.39015 | 37009 ft | 487 kts | 138° |
| 2026-04-29 18:45 | 19.21385 | -66.33678 | 37009 ft | 487 kts | 138° |
| 2026-04-29 18:46 | 19.16857 | -66.28352 | 37010 ft | 487 kts | 138° |
| 2026-04-29 18:46 | 19.12327 | -66.23027 | 37008 ft | 487 kts | 138° |
| 2026-04-29 18:47 | 19.07802 | -66.17710 | 37008 ft | 486 kts | 138° |
| 2026-04-29 18:47 | 19.03327 | -66.12456 | 37000 ft | 486 kts | 138° |
| 2026-04-29 18:48 | 18.98801 | -66.07147 | 36999 ft | 486 kts | 138° |
| 2026-04-29 18:48 | 18.94281 | -66.01845 | 37002 ft | 485 kts | 138° |
| 2026-04-29 18:49 | 18.89758 | -65.96545 | 36997 ft | 485 kts | 138° |
| 2026-04-29 18:49 | 18.85246 | -65.91263 | 37006 ft | 484 kts | 138° |
| 2026-04-29 18:50 | 18.80726 | -65.85978 | 37010 ft | 484 kts | 138° |
| 2026-04-29 18:50 | 18.76211 | -65.80705 | 37010 ft | 484 kts | 138° |
| 2026-04-29 18:51 | 18.71725 | -65.75471 | 37014 ft | 484 kts | 138° |
| 2026-04-29 18:51 | 18.67202 | -65.70194 | 37006 ft | 485 kts | 138° |
| 2026-04-29 18:52 | 18.62680 | -65.64923 | 37014 ft | 485 kts | 138° |
| 2026-04-29 18:52 | 18.58137 | -65.59634 | 37009 ft | 485 kts | 138° |
| 2026-04-29 18:53 | 18.53639 | -65.54399 | 37007 ft | 484 kts | 138° |
| 2026-04-29 18:53 | 18.49113 | -65.49137 | 37007 ft | 484 kts | 138° |
| 2026-04-29 18:54 | 18.44588 | -65.43883 | 37012 ft | 484 kts | 138° |
| 2026-04-29 18:54 | 18.40814 | -65.39502 | 37008 ft | 484 kts | 138° |
| 2026-04-29 18:55 | 18.36285 | -65.34249 | 37012 ft | 484 kts | 138° |
| 2026-04-29 18:55 | 18.31777 | -65.29034 | 37008 ft | 485 kts | 138° |
| 2026-04-29 18:56 | 18.27227 | -65.23785 | 37010 ft | 486 kts | 139° |
| 2026-04-29 18:56 | 18.22669 | -65.18530 | 37001 ft | 486 kts | 138° |
| 2026-04-29 18:57 | 18.18114 | -65.13272 | 37001 ft | 486 kts | 138° |
| 2026-04-29 18:57 | 18.13551 | -65.08012 | 36996 ft | 485 kts | 138° |
| 2026-04-29 18:58 | 18.09005 | -65.02775 | 36994 ft | 484 kts | 138° |
| 2026-04-29 18:58 | 18.04497 | -64.97588 | 37004 ft | 483 kts | 138° |
| 2026-04-29 18:59 | 17.99972 | -64.92386 | 37011 ft | 482 kts | 139° |
| 2026-04-29 18:59 | 17.95436 | -64.87175 | 37012 ft | 483 kts | 138° |
| 2026-04-29 19:00 | 17.90907 | -64.81978 | 37009 ft | 483 kts | 138° |
| 2026-04-29 19:00 | 17.86365 | -64.76772 | 37018 ft | 483 kts | 138° |
| 2026-04-29 19:01 | 17.81815 | -64.71557 | 37023 ft | 484 kts | 138° |
| 2026-04-29 19:01 | 17.77261 | -64.66341 | 37020 ft | 485 kts | 138° |
| 2026-04-29 19:02 | 17.73473 | -64.62007 | 37031 ft | 487 kts | 138° |
| 2026-04-29 19:02 | 17.68112 | -64.55878 | 37017 ft | 488 kts | 138° |
| 2026-04-29 19:03 | 17.64299 | -64.51519 | 37020 ft | 488 kts | 138° |
| 2026-04-29 19:03 | 17.61994 | -64.48888 | 36787 ft | 492 kts | 138° |
| 2026-04-29 19:03 | 17.59679 | -64.46226 | 36250 ft | 495 kts | 135° |
| 2026-04-29 19:04 | 17.57016 | -64.42345 | 35586 ft | 496 kts | 123° |
| 2026-04-29 19:04 | 17.55958 | -64.40170 | 35249 ft | 497 kts | 118° |
| 2026-04-29 19:04 | 17.54544 | -64.36849 | 34765 ft | 498 kts | 116° |
| 2026-04-29 19:04 | 17.53189 | -64.33559 | 34276 ft | 499 kts | 116° |
| 2026-04-29 19:05 | 17.51801 | -64.30172 | 33775 ft | 500 kts | 116° |
| 2026-04-29 19:05 | 17.50422 | -64.26832 | 33287 ft | 500 kts | 116° |
| 2026-04-29 19:05 | 17.49044 | -64.23535 | 32805 ft | 501 kts | 117° |
| 2026-04-29 19:05 | 17.47625 | -64.20180 | 32310 ft | 502 kts | 117° |
| 2026-04-29 19:06 | 17.46205 | -64.16843 | 31814 ft | 503 kts | 117° |
| 2026-04-29 19:06 | 17.44775 | -64.13491 | 31323 ft | 503 kts | 117° |
| 2026-04-29 19:06 | 17.41902 | -64.06774 | 30329 ft | 504 kts | 117° |
| 2026-04-29 19:07 | 17.40468 | -64.03423 | 29829 ft | 504 kts | 117° |
| 2026-04-29 19:07 | 17.39517 | -64.01199 | 29504 ft | 504 kts | 117° |
| 2026-04-29 19:07 | 17.37601 | -63.96722 | 28843 ft | 503 kts | 117° |
| 2026-04-29 19:07 | 17.36191 | -63.93428 | 28352 ft | 503 kts | 117° |
| 2026-04-29 19:08 | 17.34763 | -63.90092 | 27855 ft | 502 kts | 117° |
| 2026-04-29 19:08 | 17.33318 | -63.86721 | 27352 ft | 501 kts | 117° |
| 2026-04-29 19:08 | 17.31911 | -63.83435 | 26874 ft | 501 kts | 117° |
| 2026-04-29 19:08 | 17.30485 | -63.80109 | 26366 ft | 501 kts | 117° |
| 2026-04-29 19:09 | 17.29057 | -63.76782 | 25869 ft | 501 kts | 117° |
| 2026-04-29 19:09 | 17.27631 | -63.73462 | 25364 ft | 500 kts | 117° |
| 2026-04-29 19:09 | 17.26206 | -63.70144 | 24877 ft | 499 kts | 117° |
| 2026-04-29 19:09 | 17.24783 | -63.66833 | 24376 ft | 497 kts | 116° |
| 2026-04-29 19:10 | 17.23378 | -63.63563 | 23870 ft | 489 kts | 116° |
| 2026-04-29 19:10 | 17.21995 | -63.60343 | 23366 ft | 480 kts | 116° |
| 2026-04-29 19:10 | 17.20634 | -63.57179 | 22885 ft | 475 kts | 116° |
| 2026-04-29 19:10 | 17.19279 | -63.54032 | 22443 ft | 472 kts | 116° |
| 2026-04-29 19:11 | 17.17933 | -63.50909 | 21998 ft | 469 kts | 116° |
| 2026-04-29 19:11 | 17.16595 | -63.47810 | 21551 ft | 466 kts | 116° |
| 2026-04-29 19:11 | 17.15266 | -63.44730 | 21102 ft | 464 kts | 116° |
| 2026-04-29 19:11 | 17.13939 | -63.41654 | 20649 ft | 461 kts | 116° |
| 2026-04-29 19:12 | 17.12636 | -63.38639 | 20210 ft | 459 kts | 116° |
| 2026-04-29 19:12 | 17.11327 | -63.35610 | 19749 ft | 456 kts | 116° |
| 2026-04-29 19:12 | 17.10026 | -63.32599 | 19309 ft | 452 kts | 116° |
| 2026-04-29 19:12 | 17.09152 | -63.30580 | 19006 ft | 450 kts | 116° |
| 2026-04-29 19:13 | 17.07453 | -63.26654 | 18414 ft | 445 kts | 116° |
| 2026-04-29 19:13 | 17.06183 | -63.23716 | 17960 ft | 442 kts | 116° |
| 2026-04-29 19:13 | 17.04923 | -63.20803 | 17516 ft | 438 kts | 116° |
| 2026-04-29 19:13 | 17.03672 | -63.17915 | 17065 ft | 434 kts | 116° |
| 2026-04-29 19:14 | 17.02431 | -63.15053 | 16623 ft | 431 kts | 115° |
| 2026-04-29 19:14 | 17.01196 | -63.12206 | 16162 ft | 428 kts | 115° |
| 2026-04-29 19:14 | 16.99972 | -63.09384 | 15712 ft | 424 kts | 115° |
| 2026-04-29 19:14 | 16.98762 | -63.06593 | 15263 ft | 420 kts | 115° |
| 2026-04-29 19:15 | 16.97562 | -63.03828 | 14855 ft | 415 kts | 115° |
| 2026-04-29 19:15 | 16.96374 | -63.01093 | 14454 ft | 411 kts | 115° |
| 2026-04-29 19:15 | 16.95184 | -62.98397 | 14054 ft | 407 kts | 116° |
| 2026-04-29 19:15 | 16.93951 | -62.95750 | 13660 ft | 403 kts | 117° |
| 2026-04-29 19:16 | 16.92703 | -62.93137 | 13262 ft | 400 kts | 117° |
| 2026-04-29 19:16 | 16.91454 | -62.90539 | 12851 ft | 398 kts | 117° |
| 2026-04-29 19:16 | 16.90235 | -62.87996 | 12459 ft | 395 kts | 116° |
| 2026-04-29 19:16 | 16.89010 | -62.85433 | 12065 ft | 393 kts | 116° |
| 2026-04-29 19:17 | 16.87796 | -62.82884 | 11667 ft | 390 kts | 116° |
| 2026-04-29 19:17 | 16.86593 | -62.80353 | 11256 ft | 388 kts | 116° |
| 2026-04-29 19:17 | 16.85394 | -62.77829 | 10868 ft | 387 kts | 116° |
| 2026-04-29 19:17 | 16.84202 | -62.75321 | 10462 ft | 385 kts | 116° |
| 2026-04-29 19:18 | 16.83017 | -62.72824 | 10085 ft | 381 kts | 116° |
| 2026-04-29 19:18 | 16.82241 | -62.71192 | 10028 ft | 378 kts | 116° |
| 2026-04-29 19:18 | 16.80687 | -62.67922 | 10007 ft | 374 kts | 116° |
| 2026-04-29 19:18 | 16.79533 | -62.65493 | 9997 ft | 374 kts | 116° |
| 2026-04-29 19:19 | 16.78378 | -62.63060 | 10002 ft | 374 kts | 116° |
| 2026-04-29 19:19 | 16.77238 | -62.60663 | 9992 ft | 369 kts | 116° |
| 2026-04-29 19:19 | 16.76107 | -62.58284 | 9980 ft | 353 kts | 116° |
| 2026-04-29 19:19 | 16.75042 | -62.56047 | 9979 ft | 335 kts | 116° |
| 2026-04-29 19:20 | 16.74040 | -62.53942 | 9988 ft | 319 kts | 116° |
| 2026-04-29 19:20 | 16.73077 | -62.51922 | 10008 ft | 304 kts | 116° |
| 2026-04-29 19:20 | 16.72158 | -62.49989 | 9962 ft | 292 kts | 116° |
| 2026-04-29 19:20 | 16.71254 | -62.48092 | 9647 ft | 290 kts | 116° |
| 2026-04-29 19:21 | 16.70360 | -62.46216 | 9377 ft | 287 kts | 116° |
| 2026-04-29 19:21 | 16.69482 | -62.44375 | 9102 ft | 284 kts | 116° |
| 2026-04-29 19:21 | 16.68607 | -62.42541 | 8819 ft | 281 kts | 116° |
| 2026-04-29 19:21 | 16.67738 | -62.40721 | 8544 ft | 279 kts | 116° |
| 2026-04-29 19:22 | 16.66881 | -62.38923 | 8279 ft | 276 kts | 116° |
| 2026-04-29 19:22 | 16.66028 | -62.37136 | 8003 ft | 273 kts | 116° |
| 2026-04-29 19:22 | 16.65194 | -62.35389 | 7735 ft | 271 kts | 116° |
| 2026-04-29 19:22 | 16.64359 | -62.33640 | 7522 ft | 267 kts | 116° |
| 2026-04-29 19:23 | 16.63541 | -62.31926 | 7350 ft | 262 kts | 116° |
| 2026-04-29 19:23 | 16.62726 | -62.30221 | 7195 ft | 264 kts | 116° |
| 2026-04-29 19:23 | 16.61905 | -62.28505 | 7024 ft | 265 kts | 116° |
| 2026-04-29 19:23 | 16.61081 | -62.26779 | 6857 ft | 267 kts | 116° |
| 2026-04-29 19:24 | 16.60253 | -62.25046 | 6675 ft | 265 kts | 116° |
| 2026-04-29 19:24 | 16.59432 | -62.23331 | 6498 ft | 263 kts | 116° |
| 2026-04-29 19:24 | 16.58621 | -62.21633 | 6325 ft | 261 kts | 116° |
| 2026-04-29 19:24 | 16.57813 | -62.19946 | 6142 ft | 259 kts | 116° |
| 2026-04-29 19:25 | 16.57011 | -62.18270 | 5968 ft | 257 kts | 117° |
| 2026-04-29 19:25 | 16.56105 | -62.16677 | 5779 ft | 256 kts | 129° |
| 2026-04-29 19:25 | 16.54913 | -62.15311 | 5614 ft | 254 kts | 134° |
| 2026-04-29 19:25 | 16.53687 | -62.14037 | 5435 ft | 250 kts | 135° |
| 2026-04-29 19:26 | 16.52459 | -62.12773 | 5250 ft | 245 kts | 135° |
| 2026-04-29 19:26 | 16.51262 | -62.11533 | 5074 ft | 243 kts | 134° |
| 2026-04-29 19:26 | 16.50069 | -62.10286 | 4896 ft | 242 kts | 134° |
| 2026-04-29 19:26 | 16.48887 | -62.09042 | 4726 ft | 241 kts | 134° |
| 2026-04-29 19:27 | 16.47714 | -62.07802 | 4552 ft | 239 kts | 134° |
| 2026-04-29 19:27 | 16.46549 | -62.06565 | 4370 ft | 239 kts | 133° |
| 2026-04-29 19:27 | 16.45384 | -62.05325 | 4202 ft | 240 kts | 133° |
| 2026-04-29 19:27 | 16.44215 | -62.04082 | 4031 ft | 241 kts | 134° |
| 2026-04-29 19:28 | 16.43044 | -62.02835 | 3849 ft | 240 kts | 133° |
| 2026-04-29 19:28 | 16.41877 | -62.01591 | 3718 ft | 239 kts | 133° |
| 2026-04-29 19:28 | 16.40716 | -62.00352 | 3662 ft | 238 kts | 133° |
| 2026-04-29 19:28 | 16.39562 | -61.99121 | 3637 ft | 237 kts | 133° |
| 2026-04-29 19:29 | 16.38409 | -61.97892 | 3640 ft | 238 kts | 133° |
| 2026-04-29 19:29 | 16.37251 | -61.96661 | 3641 ft | 239 kts | 133° |
| 2026-04-29 19:29 | 16.36088 | -61.95423 | 3635 ft | 239 kts | 133° |
| 2026-04-29 19:29 | 16.34924 | -61.94182 | 3636 ft | 240 kts | 133° |
| 2026-04-29 19:30 | 16.33920 | -61.92820 | 3619 ft | 238 kts | 113° |
| 2026-04-29 19:30 | 16.33454 | -61.91172 | 3626 ft | 237 kts | 102° |
| 2026-04-29 19:30 | 16.33171 | -61.89605 | 3633 ft | 238 kts | 100° |
| 2026-04-29 19:30 | 16.32885 | -61.87909 | 3632 ft | 238 kts | 100° |
| 2026-04-29 19:31 | 16.32597 | -61.86234 | 3631 ft | 239 kts | 101° |
| 2026-04-29 19:31 | 16.32300 | -61.84543 | 3610 ft | 233 kts | 101° |
| 2026-04-29 19:31 | 16.32010 | -61.82933 | 3601 ft | 221 kts | 101° |
| 2026-04-29 19:31 | 16.31728 | -61.81388 | 3606 ft | 215 kts | 101° |
| 2026-04-29 19:32 | 16.31448 | -61.79861 | 3605 ft | 215 kts | 101° |
| 2026-04-29 19:32 | 16.31170 | -61.78332 | 3627 ft | 216 kts | 101° |
| 2026-04-29 19:32 | 16.30885 | -61.76785 | 3608 ft | 219 kts | 101° |
| 2026-04-29 19:32 | 16.30600 | -61.75238 | 3656 ft | 216 kts | 101° |
| 2026-04-29 19:33 | 16.30329 | -61.73703 | 3604 ft | 215 kts | 101° |
| 2026-04-29 19:33 | 16.30052 | -61.72172 | 3559 ft | 217 kts | 101° |
| 2026-04-29 19:33 | 16.29761 | -61.70601 | 3296 ft | 223 kts | 101° |
| 2026-04-29 19:33 | 16.29469 | -61.69033 | 3006 ft | 219 kts | 101° |
| 2026-04-29 19:34 | 16.29183 | -61.67488 | 2694 ft | 216 kts | 101° |
| 2026-04-29 19:34 | 16.28901 | -61.65969 | 2396 ft | 212 kts | 101° |
| 2026-04-29 19:34 | 16.28626 | -61.64498 | 2097 ft | 206 kts | 101° |
| 2026-04-29 19:34 | 16.28357 | -61.63058 | 1812 ft | 200 kts | 101° |
| 2026-04-29 19:35 | 16.28100 | -61.61664 | 1537 ft | 193 kts | 102° |
| 2026-04-29 19:35 | 16.27850 | -61.60325 | 1282 ft | 184 kts | 102° |
| 2026-04-29 19:35 | 16.27617 | -61.59052 | 1021 ft | 173 kts | 102° |
| 2026-04-29 19:35 | 16.27403 | -61.57898 | 783 ft | 154 kts | 102° |
| 2026-04-29 19:36 | 16.27213 | -61.56875 | 647 ft | 135 kts | 103° |
| 2026-04-29 19:36 | 16.27045 | -61.55950 | 371 ft | 127 kts | 102° |
| 2026-04-29 19:36 | 16.26884 | -61.55066 | 160 ft | 125 kts | 103° |
| 2026-04-29 19:36 | 16.26721 | -61.54187 | 31 ft | 118 kts | 102° |
| 2026-04-29 19:37 | 16.26580 | -61.53447 | 21 ft | 104 kts | 101° |
| 2026-04-29 19:37 | 16.26498 | -61.53002 | 19 ft | 80 kts | 102° |
| 2026-04-29 19:37 | 16.26410 | -61.52533 | 20 ft | 36 kts | 100° |
| 2026-04-29 19:37 | 16.26376 | -61.52341 | 25 ft | 22 kts | 101° |
| 2026-04-29 19:38 | 16.26402 | -61.52236 | 25 ft | 15 kts | 24° |
| 2026-04-29 19:38 | 16.26504 | -61.52214 | 23 ft | 16 kts | 9° |
| 2026-04-29 19:38 | 16.26616 | -61.52194 | 20 ft | 16 kts | 10° |
| 2026-04-29 19:38 | 16.26708 | -61.52197 | 20 ft | 9 kts | 323° |
| 2026-04-29 19:39 | 16.26729 | -61.52237 | 20 ft | 10 kts | 285° |
| 2026-04-29 19:39 | 16.26748 | -61.52330 | 20 ft | 16 kts | 281° |
| 2026-04-29 19:39 | 16.26772 | -61.52460 | 20 ft | 19 kts | 281° |
| 2026-04-29 19:39 | 16.26792 | -61.52568 | 20 ft | 12 kts | 281° |
| 2026-04-29 19:40 | 16.26810 | -61.52597 | 20 ft | 3 kts | 334° |
| 2026-04-29 19:40 | 16.26830 | -61.52602 | 20 ft | 3 kts | 348° |
| 2026-04-29 19:40 | 16.26852 | -61.52606 | 20 ft | 5 kts | 349° |
| 2026-04-29 19:40 | 16.26881 | -61.52612 | 20 ft | 3 kts | 349° |
| 2026-04-29 19:41 | 16.26900 | -61.52615 | 20 ft | 0 kts | 349° |